createdAt,value
2022-09-26T00:01:45.877Z,94.10
2022-09-26T00:04:23.022Z,93.90
2022-09-26T00:06:53.938Z,94.00
2022-09-26T00:09:24.188Z,93.90
2022-09-26T00:11:54.901Z,93.90
2022-09-26T00:14:27.340Z,94.00
2022-09-26T00:16:57.020Z,93.80
2022-09-26T00:19:25.848Z,93.90
2022-09-26T00:21:54.425Z,93.80
2022-09-26T00:24:22.995Z,93.90
2022-09-26T00:26:51.645Z,93.80
2022-09-26T00:29:21.550Z,93.80
2022-09-26T00:31:50.259Z,93.80
2022-09-26T00:34:21.007Z,93.60
2022-09-26T00:39:19.158Z,93.50
2022-09-26T00:41:47.641Z,93.90
2022-09-26T00:44:43.451Z,94.20
2022-09-26T00:47:25.403Z,94.30
2022-09-26T00:49:59.993Z,93.20
2022-09-26T00:52:32.460Z,93.60
2022-09-26T00:55:05.464Z,93.50
2022-09-26T00:57:39.882Z,93.60
2022-09-26T01:00:15.131Z,93.80
2022-09-26T01:02:46.548Z,94.30
2022-09-26T01:05:20.375Z,93.80
2022-09-26T01:07:50.098Z,94.10
2022-09-26T01:10:19.443Z,94.10
2022-09-26T01:12:48.956Z,94.10
2022-09-26T01:15:19.054Z,94.10
2022-09-26T01:17:48.232Z,94.10
2022-09-26T01:20:43.857Z,94.20
2022-09-26T01:24:05.937Z,94.40
2022-09-26T01:27:06.121Z,94.50
2022-09-26T01:30:07.467Z,94.30
2022-09-26T01:33:12.662Z,94.20
2022-09-26T01:36:38.780Z,94.10
2022-09-26T01:39:24.535Z,94.00
2022-09-26T01:42:06.094Z,94.00
2022-09-26T01:44:43.744Z,94.20
2022-09-26T01:47:19.173Z,94.10
2022-09-26T01:50:00.447Z,94.20
2022-09-26T01:52:38.929Z,94.20
2022-09-26T01:55:14.702Z,94.20
2022-09-26T01:57:49.843Z,94.20
2022-09-26T02:00:21.325Z,94.10
2022-09-26T02:02:52.333Z,94.20
2022-09-26T02:05:27.040Z,94.20
2022-09-26T02:08:01.337Z,93.70
2022-09-26T02:10:38.323Z,94.10
2022-09-26T02:13:15.091Z,93.70
2022-09-26T02:15:48.780Z,94.00
2022-09-26T02:18:25.521Z,94.10
2022-09-26T02:21:02.681Z,93.70
2022-09-26T02:23:31.404Z,93.60
2022-09-26T02:26:00.916Z,93.70
2022-09-26T02:28:29.847Z,93.90
2022-09-26T02:31:02.414Z,93.50
2022-09-26T02:33:33.280Z,93.60
2022-09-26T02:36:02.605Z,93.70
2022-09-26T02:38:33.244Z,93.70
2022-09-26T02:41:15.617Z,93.80
2022-09-26T02:44:03.614Z,93.90
2022-09-26T02:46:52.871Z,93.80
2022-09-26T02:49:51.884Z,93.80
2022-09-26T02:52:36.334Z,93.60
2022-09-26T02:55:21.616Z,93.90
2022-09-26T02:58:06.134Z,94.00
2022-09-26T03:00:54.526Z,93.80
2022-09-26T03:03:34.128Z,93.70
2022-09-26T03:06:09.242Z,94.00
2022-09-26T03:08:42.063Z,94.10
2022-09-26T03:11:16.896Z,93.90
2022-09-26T03:13:47.408Z,94.10
2022-09-26T03:16:16.285Z,94.10
2022-09-26T03:18:53.650Z,94.20
2022-09-26T03:21:24.471Z,94.20
2022-09-26T03:23:53.102Z,93.90
2022-09-26T03:26:24.999Z,94.20
2022-09-26T03:28:54.200Z,93.80
2022-09-26T03:31:25.639Z,93.90
2022-09-26T03:33:54.290Z,93.80
2022-09-26T03:36:25.097Z,93.70
2022-09-26T03:38:53.854Z,93.90
2022-09-26T03:41:24.402Z,93.80
2022-09-26T03:43:52.912Z,93.80
2022-09-26T03:46:21.633Z,94.00
2022-09-26T03:48:51.033Z,94.10
2022-09-26T03:51:21.133Z,94.20
2022-09-26T03:53:51.478Z,94.10
2022-09-26T03:56:23.086Z,94.10
2022-09-26T03:58:51.791Z,94.10
2022-09-26T04:01:23.773Z,94.00
2022-09-26T04:03:52.599Z,94.20
2022-09-26T04:06:22.071Z,94.20
2022-09-26T04:08:54.204Z,93.50
2022-09-26T04:11:24.999Z,93.10
2022-09-26T04:13:54.720Z,92.70
2022-09-26T04:16:24.591Z,92.70
2022-09-26T04:18:57.966Z,91.80
2022-09-26T04:21:28.716Z,92.70
2022-09-26T04:23:58.859Z,92.70
2022-09-26T04:26:27.599Z,91.90
2022-09-26T04:28:59.299Z,92.30
2022-09-26T04:31:29.303Z,92.60
2022-09-26T04:33:57.964Z,93.10
2022-09-26T04:36:26.687Z,93.00
2022-09-26T04:38:55.215Z,93.10
2022-09-26T04:41:25.360Z,93.40
2022-09-26T04:43:56.091Z,93.50
2022-09-26T04:46:30.792Z,93.70
2022-09-26T04:49:02.374Z,93.70
2022-09-26T04:51:33.195Z,93.60
2022-09-26T04:54:01.706Z,93.80
2022-09-26T04:56:31.814Z,93.50
2022-09-26T04:59:01.500Z,93.90
2022-09-26T05:01:30.141Z,94.20
2022-09-26T05:03:58.976Z,94.20
2022-09-26T05:06:27.731Z,94.00
2022-09-26T05:08:56.327Z,94.50
2022-09-26T05:11:25.182Z,93.40
2022-09-26T05:13:55.301Z,93.70
2022-09-26T05:16:24.142Z,94.00
2022-09-26T05:18:54.315Z,93.70
2022-09-26T05:21:22.900Z,93.70
2022-09-26T05:24:09.352Z,93.20
2022-09-26T05:26:47.128Z,93.90
2022-09-26T05:29:19.809Z,93.30
2022-09-26T05:31:48.495Z,93.60
2022-09-26T05:34:20.116Z,93.90
2022-09-26T05:36:49.288Z,93.40
2022-09-26T05:39:39.027Z,93.10
2022-09-26T05:42:11.336Z,93.30
2022-09-26T05:44:41.265Z,93.30
2022-09-26T05:47:09.913Z,93.70
2022-09-26T05:49:38.767Z,93.60
2022-09-26T05:52:07.327Z,93.80
2022-09-26T05:54:35.921Z,93.70
2022-09-26T05:57:04.765Z,94.00
2022-09-26T05:59:33.597Z,94.10
2022-09-26T06:02:06.376Z,93.80
2022-09-26T06:04:35.248Z,94.20
2022-09-26T06:07:03.770Z,94.10
2022-09-26T06:09:32.259Z,94.30
2022-09-26T06:12:01.016Z,94.20
2022-09-26T06:14:29.744Z,94.20
2022-09-26T06:16:58.274Z,94.20
2022-09-26T06:19:28.416Z,94.00
2022-09-26T06:21:56.973Z,94.00
2022-09-26T06:24:25.497Z,94.20
2022-09-26T06:26:54.399Z,93.80
2022-09-26T06:29:22.916Z,93.90
2022-09-26T06:31:51.682Z,93.70
2022-09-26T06:34:20.538Z,93.90
2022-09-26T06:36:50.840Z,93.70
2022-09-26T06:39:19.405Z,93.20
2022-09-26T06:44:17.442Z,92.80
2022-09-26T06:46:46.252Z,93.30
2022-09-26T06:49:14.931Z,93.10
2022-09-26T06:51:44.352Z,93.00
2022-09-26T06:54:14.292Z,93.20
2022-09-26T06:56:42.802Z,93.30
2022-09-26T06:59:11.964Z,93.30
2022-09-26T07:04:10.468Z,93.60
2022-09-26T07:06:39.102Z,94.30
2022-09-26T07:09:15.007Z,94.70
2022-09-26T07:12:13.192Z,94.00
2022-09-26T07:14:37.887Z,94.00
2022-09-26T07:17:06.417Z,94.60
2022-09-26T07:22:03.936Z,94.40
2022-09-26T07:24:32.710Z,94.80
2022-09-26T07:27:03.030Z,94.70
2022-09-26T07:29:33.123Z,94.60
2022-09-26T07:32:02.099Z,94.50
2022-09-26T07:34:31.701Z,94.70
2022-09-26T07:37:00.493Z,94.80
2022-09-26T07:39:29.035Z,95.10
2022-09-26T07:41:57.750Z,94.80
2022-09-26T07:45:16.470Z,94.70
2022-09-26T07:47:34.167Z,95.00
2022-09-26T07:52:48.070Z,94.60
2022-09-26T07:55:21.154Z,95.00
2022-09-26T08:00:21.913Z,94.20
2022-09-26T08:02:50.956Z,93.80
2022-09-26T08:05:21.240Z,92.90
2022-09-26T08:07:50.838Z,92.90
2022-09-26T08:10:22.813Z,93.10
2022-09-26T08:12:51.891Z,92.90
2022-09-26T08:15:21.843Z,91.70
2022-09-26T08:17:50.561Z,88.10
2022-09-26T08:20:19.179Z,83.70
2022-09-26T08:22:47.652Z,69.80
2022-09-26T08:25:17.281Z,65.00
2022-09-26T08:27:48.755Z,70.60
2022-09-26T08:30:17.987Z,62.50
2022-09-26T08:32:54.308Z,57.00
2022-09-26T08:35:22.986Z,58.20
2022-09-26T08:37:51.425Z,56.90
2022-09-26T08:40:24.462Z,57.70
2022-09-26T08:43:07.183Z,51.80
2022-09-26T08:46:07.491Z,51.10
2022-09-26T08:49:02.957Z,52.00
2022-09-26T08:51:36.255Z,49.00
2022-09-26T08:54:14.628Z,47.20
2022-09-26T08:56:49.621Z,45.40
2022-09-26T08:59:27.456Z,46.80
2022-09-26T09:02:01.990Z,47.90
2022-09-26T09:04:45.980Z,47.80
2022-09-26T09:07:24.234Z,48.20
2022-09-26T09:09:57.747Z,44.20
2022-09-26T09:12:43.180Z,44.80
2022-09-26T09:15:39.038Z,44.70
2022-09-26T09:18:25.343Z,45.10
2022-09-26T09:21:07.548Z,48.90
2022-09-26T09:23:59.356Z,50.80
2022-09-26T09:29:57.025Z,60.40
2022-09-26T09:32:35.031Z,59.80
2022-09-26T09:35:04.784Z,60.60
2022-09-26T09:37:44.820Z,61.70
2022-09-26T09:40:26.172Z,63.30
2022-09-26T09:43:02.870Z,60.20
2022-09-26T09:45:39.645Z,61.30
2022-09-26T09:48:13.436Z,62.90
2022-09-26T09:50:54.782Z,57.00
2022-09-26T09:53:43.921Z,61.00
2022-09-26T09:56:26.337Z,63.70
2022-09-26T09:59:16.920Z,62.00
2022-09-26T10:01:51.634Z,61.90
2022-09-26T10:10:14.591Z,63.70
2022-09-26T10:12:44.339Z,64.60
2022-09-26T10:15:20.792Z,63.80
2022-09-26T10:18:23.992Z,64.60
2022-09-26T10:20:57.423Z,67.00
2022-09-26T10:23:33.130Z,68.00
2022-09-26T10:26:07.546Z,69.70
2022-09-26T10:28:46.426Z,68.90
2022-09-26T10:31:25.678Z,69.70
2022-09-26T10:34:00.535Z,68.60
2022-09-26T10:36:36.474Z,69.50
2022-09-26T10:39:36.759Z,70.10
2022-09-26T10:42:16.475Z,71.00
2022-09-26T10:44:46.408Z,69.30
2022-09-26T10:47:19.273Z,68.90
2022-09-26T10:49:54.589Z,69.70
2022-09-26T10:52:31.123Z,73.50
2022-09-26T10:55:07.009Z,70.50
2022-09-26T10:57:45.986Z,69.50
2022-09-26T11:00:22.131Z,69.10
2022-09-26T11:02:53.589Z,71.00
2022-09-26T11:05:45.181Z,71.80
2022-09-26T11:08:15.351Z,68.20
2022-09-26T11:10:49.020Z,68.70
2022-09-26T11:13:21.312Z,70.10
2022-09-26T11:16:01.408Z,68.20
2022-09-26T11:18:47.230Z,70.10
2022-09-26T11:21:29.105Z,70.30
2022-09-26T11:24:07.627Z,69.60
2022-09-26T11:26:49.401Z,67.90
2022-09-26T11:29:34.811Z,68.20
2022-09-26T11:32:05.209Z,67.10
2022-09-26T11:34:36.860Z,68.30
2022-09-26T11:37:35.481Z,67.90
2022-09-26T11:40:32.964Z,68.40
2022-09-26T11:43:30.713Z,69.50
2022-09-26T11:46:39.889Z,70.50
2022-09-26T11:50:00.523Z,69.10
2022-09-26T11:52:49.536Z,69.80
2022-09-26T11:55:28.983Z,72.20
2022-09-26T11:58:09.857Z,72.00
2022-09-26T12:00:52.251Z,73.50
2022-09-26T12:04:16.406Z,75.50
2022-09-26T12:06:57.156Z,75.40
2022-09-26T12:09:59.950Z,76.30
2022-09-26T12:12:42.739Z,76.20
2022-09-26T12:15:23.827Z,77.50
2022-09-26T12:18:08.552Z,77.80
2022-09-26T12:20:48.026Z,77.80
2022-09-26T12:23:29.729Z,76.50
2022-09-26T12:26:14.350Z,77.80
2022-09-26T12:29:17.476Z,76.70
2022-09-26T12:32:14.779Z,76.20
2022-09-26T12:35:19.158Z,73.80
2022-09-26T12:38:32.787Z,72.80
2022-09-26T12:41:23.355Z,71.40
2022-09-26T12:44:23.097Z,73.50
2022-09-26T12:47:16.868Z,74.60
2022-09-26T12:50:17.459Z,73.60
2022-09-26T12:53:25.967Z,71.20
2022-09-26T12:56:08.111Z,71.40
2022-09-26T12:59:07.317Z,70.90
2022-09-26T13:02:11.984Z,72.10
2022-09-26T13:05:18.101Z,71.40
2022-09-26T13:08:08.672Z,70.00
2022-09-26T13:10:56.916Z,71.10
2022-09-26T13:14:15.131Z,70.40
2022-09-26T13:17:10.234Z,69.60
2022-09-26T13:19:48.527Z,68.80
2022-09-26T13:22:34.887Z,72.20
2022-09-26T13:25:18.990Z,70.20
2022-09-26T13:27:58.723Z,71.10
2022-09-26T13:30:35.268Z,70.80
2022-09-26T13:33:14.719Z,72.10
2022-09-26T13:35:47.987Z,69.60
2022-09-26T13:38:35.470Z,73.20
2022-09-26T13:41:22.220Z,71.90
2022-09-26T13:44:07.962Z,72.40
2022-09-26T13:46:50.686Z,72.60
2022-09-26T13:49:37.649Z,73.10
2022-09-26T13:52:22.567Z,73.40
2022-09-26T13:55:04.245Z,75.60
2022-09-26T13:57:46.860Z,76.50
2022-09-26T14:00:49.334Z,79.20
2022-09-26T14:03:42.774Z,79.80
2022-09-26T14:06:32.140Z,80.10
2022-09-26T14:09:28.035Z,81.30
2022-09-26T14:12:34.007Z,84.30
2022-09-26T14:15:20.890Z,81.70
2022-09-26T14:18:16.785Z,81.00
2022-09-26T14:21:08.597Z,83.40
2022-09-26T14:23:49.030Z,79.80
2022-09-26T14:26:22.399Z,82.00
2022-09-26T14:28:55.308Z,81.80
2022-09-26T14:32:02.075Z,83.50
2022-09-26T14:34:40.178Z,83.80
2022-09-26T14:37:35.171Z,81.20
2022-09-26T14:40:29.706Z,77.80
2022-09-26T14:43:14.758Z,77.70
2022-09-26T14:45:51.200Z,77.40
2022-09-26T14:48:36.064Z,72.70
2022-09-26T14:51:25.604Z,75.30
2022-09-26T14:54:01.285Z,71.60
2022-09-26T14:56:48.327Z,75.50
2022-09-26T14:59:40.495Z,75.70
2022-09-26T15:02:28.190Z,75.10
2022-09-26T15:05:20.181Z,73.20
2022-09-26T15:07:53.401Z,70.80
2022-09-26T15:10:27.225Z,73.20
2022-09-26T15:13:04.395Z,72.40
2022-09-26T15:15:46.735Z,72.30
2022-09-26T15:18:27.335Z,73.00
2022-09-26T15:21:04.454Z,72.10
2022-09-26T15:23:47.447Z,70.30
2022-09-26T15:26:19.903Z,69.00
2022-09-26T15:28:51.872Z,70.20
2022-09-26T15:31:28.180Z,69.80
2022-09-26T15:34:03.083Z,70.50
2022-09-26T15:36:35.553Z,71.20
2022-09-26T15:39:37.875Z,72.10
2022-09-26T15:42:44.640Z,72.80
2022-09-26T15:45:30.145Z,71.60
2022-09-26T15:48:02.505Z,69.10
2022-09-26T15:50:41.436Z,70.30
2022-09-26T15:53:24.329Z,69.70
2022-09-26T15:56:00.854Z,68.20
2022-09-26T15:58:38.050Z,69.60
2022-09-26T16:01:08.135Z,69.60
2022-09-26T16:03:54.293Z,70.30
2022-09-26T16:06:31.252Z,68.10
2022-09-26T16:09:08.204Z,68.90
2022-09-26T16:11:50.224Z,68.10
2022-09-26T16:14:32.387Z,69.60
2022-09-26T16:17:22.185Z,69.00
2022-09-26T16:19:54.068Z,68.60
2022-09-26T16:22:40.706Z,68.40
2022-09-26T16:25:29.702Z,70.10
2022-09-26T16:28:23.588Z,70.60
2022-09-26T16:31:18.987Z,68.80
2022-09-26T16:33:53.647Z,70.80
2022-09-26T16:36:24.778Z,70.80
2022-09-26T16:38:57.798Z,69.20
2022-09-26T16:44:35.789Z,69.30
2022-09-26T16:47:09.189Z,69.90
2022-09-26T16:49:47.742Z,70.50
2022-09-26T16:52:30.883Z,70.40
2022-09-26T16:55:02.138Z,71.30
2022-09-26T16:57:34.510Z,71.10
2022-09-26T17:00:27.068Z,69.10
2022-09-26T17:02:55.892Z,69.00
2022-09-26T17:05:24.461Z,69.80
2022-09-26T17:07:53.216Z,70.80
2022-09-26T17:10:26.009Z,73.10
2022-09-26T17:12:55.158Z,74.10
2022-09-26T17:15:31.280Z,76.00
2022-09-26T17:18:01.645Z,75.50
2022-09-26T17:20:30.717Z,76.20
2022-09-26T17:23:11.993Z,75.90
2022-09-26T17:25:52.982Z,77.70
2022-09-26T17:28:37.028Z,76.60
2022-09-26T17:31:12.047Z,75.80
2022-09-26T17:33:43.464Z,75.20
2022-09-26T17:36:20.803Z,76.50
2022-09-26T17:38:49.563Z,76.30
2022-09-26T17:41:18.239Z,76.50
2022-09-26T17:43:46.984Z,76.00
2022-09-26T17:46:19.113Z,77.60
2022-09-26T17:48:47.865Z,75.90
2022-09-26T17:51:16.387Z,75.70
2022-09-26T17:53:51.155Z,75.30
2022-09-26T17:56:20.460Z,74.30
2022-09-26T17:58:52.159Z,77.10
2022-09-26T18:01:27.382Z,74.30
2022-09-26T18:04:02.873Z,76.90
2022-09-26T18:06:34.328Z,75.30
2022-09-26T18:09:10.791Z,74.70
2022-09-26T18:11:41.951Z,75.20
2022-09-26T18:14:15.796Z,75.80
2022-09-26T18:16:46.862Z,75.30
2022-09-26T18:19:15.448Z,74.60
2022-09-26T18:21:44.310Z,76.10
2022-09-26T18:24:19.917Z,76.90
2022-09-26T18:26:51.115Z,77.70
2022-09-26T18:29:28.866Z,76.00
2022-09-26T18:32:01.340Z,75.70
2022-09-26T18:34:29.805Z,77.60
2022-09-26T18:37:00.452Z,76.40
2022-09-26T18:39:29.586Z,76.80
2022-09-26T18:42:02.837Z,77.10
2022-09-26T18:44:35.161Z,75.20
2022-09-26T18:47:13.608Z,75.40
2022-09-26T18:49:43.432Z,75.80
2022-09-26T18:52:16.317Z,74.10
2022-09-26T18:54:47.336Z,74.50
2022-09-26T18:57:33.290Z,75.10
2022-09-26T19:00:03.180Z,76.10
2022-09-26T19:02:38.474Z,76.00
2022-09-26T19:05:13.120Z,78.00
2022-09-26T19:07:44.730Z,79.00
2022-09-26T19:10:17.703Z,79.60
2022-09-26T19:12:46.215Z,81.70
2022-09-26T19:15:16.687Z,81.40
2022-09-26T19:17:46.676Z,83.00
2022-09-26T19:20:15.617Z,83.90
2022-09-26T19:22:44.179Z,86.90
2022-09-26T19:25:12.735Z,84.40
2022-09-26T19:27:48.810Z,84.70
2022-09-26T19:30:20.223Z,86.60
2022-09-26T19:32:52.988Z,86.50
2022-09-26T19:35:27.302Z,88.70
2022-09-26T19:37:55.822Z,90.00
2022-09-26T19:40:25.746Z,89.10
2022-09-26T19:42:55.415Z,89.40
2022-09-26T19:45:24.739Z,88.60
2022-09-26T19:47:57.171Z,89.60
2022-09-26T19:50:27.640Z,89.60
2022-09-26T19:52:58.962Z,89.90
2022-09-26T19:55:31.610Z,88.50
2022-09-26T19:58:08.777Z,90.40
2022-09-26T20:00:41.563Z,90.20
2022-09-26T20:03:18.901Z,90.40
2022-09-26T20:05:49.435Z,91.00
2022-09-26T20:08:22.414Z,90.60
2022-09-26T20:10:51.902Z,90.90
2022-09-26T20:13:20.955Z,90.90
2022-09-26T20:15:50.159Z,91.20
2022-09-26T20:18:23.693Z,90.80
2022-09-26T20:20:56.731Z,91.10
2022-09-26T20:23:28.719Z,91.20
2022-09-26T20:25:57.879Z,91.40
2022-09-26T20:28:26.639Z,91.30
2022-09-26T20:30:55.486Z,91.60
2022-09-26T20:33:27.996Z,91.80
2022-09-26T20:36:03.654Z,91.90
2022-09-26T20:38:39.487Z,90.80
2022-09-26T20:41:15.277Z,90.00
2022-09-26T20:43:49.149Z,89.10
2022-09-26T20:46:20.604Z,90.00
2022-09-26T20:48:52.808Z,86.50
2022-09-26T20:51:27.719Z,89.30
2022-09-26T20:53:58.132Z,89.50
2022-09-26T20:56:26.710Z,90.10
2022-09-26T20:58:56.340Z,90.70
2022-09-26T21:01:28.503Z,90.10
2022-09-26T21:03:58.893Z,90.70
2022-09-26T21:06:34.097Z,90.30
2022-09-26T21:09:03.771Z,90.70
2022-09-26T21:11:32.403Z,90.60
2022-09-26T21:14:01.147Z,91.10
2022-09-26T21:16:29.934Z,90.70
2022-09-26T21:19:00.114Z,91.30
2022-09-26T21:21:32.014Z,91.00
2022-09-26T21:24:01.376Z,91.80
2022-09-26T21:26:31.556Z,91.10
2022-09-26T21:29:00.351Z,91.70
2022-09-26T21:31:33.138Z,91.70
2022-09-26T21:34:04.193Z,92.00
2022-09-26T21:36:38.626Z,92.50
2022-09-26T21:39:07.621Z,92.40
2022-09-26T21:41:38.397Z,92.00
2022-09-26T21:44:17.004Z,92.60
2022-09-26T21:46:46.443Z,92.80
2022-09-26T21:49:16.555Z,92.10
2022-09-26T21:51:50.367Z,92.50
2022-09-26T21:54:24.740Z,92.50
2022-09-26T21:57:03.865Z,92.00
2022-09-26T21:59:32.950Z,92.00
2022-09-26T22:02:01.506Z,92.00
2022-09-26T22:04:31.738Z,92.10
2022-09-26T22:07:00.261Z,91.50
2022-09-26T22:09:28.987Z,92.10
2022-09-26T22:11:59.538Z,92.00
2022-09-26T22:14:28.752Z,91.70
2022-09-26T22:16:57.684Z,92.00
2022-09-26T22:19:27.753Z,92.10
2022-09-26T22:21:57.655Z,92.10
2022-09-26T22:24:26.230Z,92.40
2022-09-26T22:26:55.066Z,92.40
2022-09-26T22:29:23.586Z,92.10
2022-09-26T22:31:52.135Z,93.00
2022-09-26T22:34:23.002Z,92.60
2022-09-26T22:36:52.054Z,93.20
2022-09-26T22:39:22.216Z,92.30
2022-09-26T22:41:51.094Z,92.40
2022-09-26T22:44:19.740Z,92.50
2022-09-26T22:46:48.296Z,92.80
2022-09-26T22:49:17.038Z,92.50
2022-09-26T22:54:14.361Z,92.20
2022-09-26T22:56:44.518Z,92.00
2022-09-26T22:59:13.706Z,92.10
2022-09-26T23:01:42.657Z,92.00
2022-09-26T23:04:11.861Z,92.10
2022-09-26T23:06:40.452Z,92.10
2022-09-26T23:09:09.017Z,92.70
2022-09-26T23:14:08.465Z,92.50
2022-09-26T23:16:37.054Z,93.00
2022-09-26T23:19:05.903Z,92.80
2022-09-26T23:21:34.611Z,92.50
2022-09-26T23:24:04.911Z,93.00
2022-09-26T23:26:33.774Z,92.40
2022-09-26T23:29:02.337Z,92.20
2022-09-26T23:31:32.244Z,92.70
2022-09-26T23:34:00.969Z,92.10
2022-09-26T23:36:29.836Z,92.60
2022-09-26T23:38:59.653Z,92.60
2022-09-26T23:41:28.258Z,93.00
2022-09-26T23:43:56.993Z,93.00
2022-09-26T23:46:25.593Z,93.00
2022-09-26T23:48:56.243Z,93.10
2022-09-26T23:51:24.841Z,93.60
2022-09-26T23:53:55.406Z,93.40
2022-09-26T23:56:23.948Z,93.00
2022-09-26T23:58:52.444Z,93.30
